sensor_id;sensor_type;location;lat;lon;timestamp;temperature;humidity
32394;DHT22;18853;45.426;9.206;2024-02-21T00:01:36;16.60;56.30
32394;DHT22;18853;45.426;9.206;2024-02-21T00:04:02;16.60;56.40
32394;DHT22;18853;45.426;9.206;2024-02-21T00:06:27;16.60;56.40
32394;DHT22;18853;45.426;9.206;2024-02-21T00:08:53;16.60;56.50
32394;DHT22;18853;45.426;9.206;2024-02-21T00:11:19;16.60;56.50
32394;DHT22;18853;45.426;9.206;2024-02-21T00:13:44;16.50;56.50
32394;DHT22;18853;45.426;9.206;2024-02-21T00:16:10;16.50;56.50
32394;DHT22;18853;45.426;9.206;2024-02-21T00:18:36;16.50;56.60
32394;DHT22;18853;45.426;9.206;2024-02-21T00:21:02;16.50;56.60
32394;DHT22;18853;45.426;9.206;2024-02-21T00:23:28;16.50;56.60
32394;DHT22;18853;45.426;9.206;2024-02-21T00:25:54;16.50;56.60
32394;DHT22;18853;45.426;9.206;2024-02-21T00:28:19;16.40;56.60
32394;DHT22;18853;45.426;9.206;2024-02-21T00:30:45;16.50;56.60
32394;DHT22;18853;45.426;9.206;2024-02-21T00:33:13;16.40;56.60
32394;DHT22;18853;45.426;9.206;2024-02-21T00:35:39;16.40;56.50
32394;DHT22;18853;45.426;9.206;2024-02-21T00:38:04;16.40;56.50
32394;DHT22;18853;45.426;9.206;2024-02-21T00:40:30;16.40;56.40
32394;DHT22;18853;45.426;9.206;2024-02-21T00:42:56;16.40;56.50
32394;DHT22;18853;45.426;9.206;2024-02-21T00:45:21;16.30;56.40
32394;DHT22;18853;45.426;9.206;2024-02-21T00:47:47;16.30;56.40
32394;DHT22;18853;45.426;9.206;2024-02-21T00:50:12;16.30;56.50
32394;DHT22;18853;45.426;9.206;2024-02-21T00:52:38;16.30;56.50
32394;DHT22;18853;45.426;9.206;2024-02-21T00:55:04;16.20;56.40
32394;DHT22;18853;45.426;9.206;2024-02-21T00:57:30;16.20;56.40
32394;DHT22;18853;45.426;9.206;2024-02-21T00:59:56;16.10;56.40
32394;DHT22;18853;45.426;9.206;2024-02-21T01:02:21;16.10;56.60
32394;DHT22;18853;45.426;9.206;2024-02-21T01:04:47;16.10;56.60
32394;DHT22;18853;45.426;9.206;2024-02-21T01:07:12;16.10;56.60
32394;DHT22;18853;45.426;9.206;2024-02-21T01:09:38;16.10;56.70
32394;DHT22;18853;45.426;9.206;2024-02-21T01:12:03;16.10;56.70
32394;DHT22;18853;45.426;9.206;2024-02-21T01:14:29;16.00;56.60
32394;DHT22;18853;45.426;9.206;2024-02-21T01:16:54;16.10;56.70
32394;DHT22;18853;45.426;9.206;2024-02-21T01:19:20;16.00;56.60
32394;DHT22;18853;45.426;9.206;2024-02-21T01:21:46;16.00;56.70
32394;DHT22;18853;45.426;9.206;2024-02-21T01:24:11;16.00;56.60
32394;DHT22;18853;45.426;9.206;2024-02-21T01:26:37;16.00;56.70
32394;DHT22;18853;45.426;9.206;2024-02-21T01:29:02;16.00;56.60
32394;DHT22;18853;45.426;9.206;2024-02-21T01:31:28;16.00;56.60
32394;DHT22;18853;45.426;9.206;2024-02-21T01:33:53;16.00;56.60
32394;DHT22;18853;45.426;9.206;2024-02-21T01:36:19;16.00;56.50
32394;DHT22;18853;45.426;9.206;2024-02-21T01:38:44;16.00;56.80
32394;DHT22;18853;45.426;9.206;2024-02-21T01:41:10;16.00;56.40
32394;DHT22;18853;45.426;9.206;2024-02-21T01:43:35;16.00;56.40
32394;DHT22;18853;45.426;9.206;2024-02-21T01:46:01;16.00;56.40
32394;DHT22;18853;45.426;9.206;2024-02-21T01:48:27;16.00;57.00
32394;DHT22;18853;45.426;9.206;2024-02-21T01:50:54;16.00;56.40
32394;DHT22;18853;45.426;9.206;2024-02-21T01:53:22;16.00;56.30
32394;DHT22;18853;45.426;9.206;2024-02-21T01:55:48;15.90;56.20
32394;DHT22;18853;45.426;9.206;2024-02-21T01:58:14;15.90;56.20
32394;DHT22;18853;45.426;9.206;2024-02-21T02:00:44;16.00;56.30
32394;DHT22;18853;45.426;9.206;2024-02-21T02:03:11;15.90;56.10
32394;DHT22;18853;45.426;9.206;2024-02-21T02:05:48;15.90;56.10
32394;DHT22;18853;45.426;9.206;2024-02-21T02:08:15;15.90;56.00
32394;DHT22;18853;45.426;9.206;2024-02-21T02:10:41;15.90;55.90
32394;DHT22;18853;45.426;9.206;2024-02-21T02:13:07;15.90;55.80
32394;DHT22;18853;45.426;9.206;2024-02-21T02:18:07;15.90;55.50
32394;DHT22;18853;45.426;9.206;2024-02-21T02:20:33;15.90;55.50
32394;DHT22;18853;45.426;9.206;2024-02-21T02:25:50;15.90;55.20
32394;DHT22;18853;45.426;9.206;2024-02-21T02:28:19;15.80;55.40
32394;DHT22;18853;45.426;9.206;2024-02-21T02:30:45;15.80;55.40
32394;DHT22;18853;45.426;9.206;2024-02-21T02:33:11;15.80;55.30
32394;DHT22;18853;45.426;9.206;2024-02-21T02:35:36;15.80;55.20
32394;DHT22;18853;45.426;9.206;2024-02-21T02:38:03;15.70;55.10
32394;DHT22;18853;45.426;9.206;2024-02-21T02:40:29;15.70;54.90
32394;DHT22;18853;45.426;9.206;2024-02-21T02:42:54;15.70;54.90
32394;DHT22;18853;45.426;9.206;2024-02-21T02:45:21;15.70;54.90
32394;DHT22;18853;45.426;9.206;2024-02-21T02:47:48;15.70;54.80
32394;DHT22;18853;45.426;9.206;2024-02-21T02:50:14;15.70;54.80
32394;DHT22;18853;45.426;9.206;2024-02-21T02:52:40;15.70;54.80
32394;DHT22;18853;45.426;9.206;2024-02-21T02:55:06;15.60;54.70
32394;DHT22;18853;45.426;9.206;2024-02-21T02:57:32;15.60;54.70
32394;DHT22;18853;45.426;9.206;2024-02-21T02:59:58;15.60;54.70
32394;DHT22;18853;45.426;9.206;2024-02-21T03:02:24;15.60;54.60
32394;DHT22;18853;45.426;9.206;2024-02-21T03:04:49;15.60;54.60
32394;DHT22;18853;45.426;9.206;2024-02-21T03:07:15;15.60;54.40
32394;DHT22;18853;45.426;9.206;2024-02-21T03:09:41;15.60;54.30
32394;DHT22;18853;45.426;9.206;2024-02-21T03:12:10;15.60;54.20
32394;DHT22;18853;45.426;9.206;2024-02-21T03:14:36;15.60;54.10
32394;DHT22;18853;45.426;9.206;2024-02-21T03:17:02;15.50;54.00
32394;DHT22;18853;45.426;9.206;2024-02-21T03:19:28;15.60;53.90
32394;DHT22;18853;45.426;9.206;2024-02-21T03:21:54;15.50;53.60
32394;DHT22;18853;45.426;9.206;2024-02-21T03:24:19;15.50;53.40
32394;DHT22;18853;45.426;9.206;2024-02-21T03:26:45;15.50;53.20
32394;DHT22;18853;45.426;9.206;2024-02-21T03:29:13;15.50;53.10
32394;DHT22;18853;45.426;9.206;2024-02-21T03:31:39;15.50;53.00
32394;DHT22;18853;45.426;9.206;2024-02-21T03:34:05;15.40;52.90
32394;DHT22;18853;45.426;9.206;2024-02-21T03:36:31;15.40;52.60
32394;DHT22;18853;45.426;9.206;2024-02-21T03:38:56;15.40;52.50
32394;DHT22;18853;45.426;9.206;2024-02-21T03:41:22;15.40;52.30
32394;DHT22;18853;45.426;9.206;2024-02-21T03:43:47;15.40;52.10
32394;DHT22;18853;45.426;9.206;2024-02-21T03:46:13;15.40;51.80
32394;DHT22;18853;45.426;9.206;2024-02-21T03:48:39;15.30;51.60
32394;DHT22;18853;45.426;9.206;2024-02-21T03:51:05;15.30;51.40
32394;DHT22;18853;45.426;9.206;2024-02-21T03:53:30;15.30;51.30
32394;DHT22;18853;45.426;9.206;2024-02-21T03:55:56;15.20;51.20
32394;DHT22;18853;45.426;9.206;2024-02-21T03:58:22;15.20;51.20
32394;DHT22;18853;45.426;9.206;2024-02-21T04:00:48;15.20;51.10
32394;DHT22;18853;45.426;9.206;2024-02-21T04:03:13;15.20;51.00
32394;DHT22;18853;45.426;9.206;2024-02-21T04:05:39;15.20;50.80
32394;DHT22;18853;45.426;9.206;2024-02-21T04:08:05;15.20;50.70
32394;DHT22;18853;45.426;9.206;2024-02-21T04:10:31;15.10;50.90
32394;DHT22;18853;45.426;9.206;2024-02-21T04:12:57;15.10;50.70
32394;DHT22;18853;45.426;9.206;2024-02-21T04:15:22;15.10;50.70
32394;DHT22;18853;45.426;9.206;2024-02-21T04:17:48;15.10;50.80
32394;DHT22;18853;45.426;9.206;2024-02-21T04:20:15;15.10;50.80
32394;DHT22;18853;45.426;9.206;2024-02-21T04:22:43;15.10;50.80
32394;DHT22;18853;45.426;9.206;2024-02-21T04:25:09;15.10;50.80
32394;DHT22;18853;45.426;9.206;2024-02-21T04:27:35;15.10;51.40
32394;DHT22;18853;45.426;9.206;2024-02-21T04:30:00;15.10;50.70
32394;DHT22;18853;45.426;9.206;2024-02-21T04:32:26;15.10;50.80
32394;DHT22;18853;45.426;9.206;2024-02-21T04:34:53;15.10;50.70
32394;DHT22;18853;45.426;9.206;2024-02-21T04:37:18;15.10;50.70
32394;DHT22;18853;45.426;9.206;2024-02-21T04:39:44;15.10;50.60
32394;DHT22;18853;45.426;9.206;2024-02-21T04:42:09;15.10;50.60
32394;DHT22;18853;45.426;9.206;2024-02-21T04:44:35;15.10;50.60
32394;DHT22;18853;45.426;9.206;2024-02-21T04:47:01;15.10;50.60
32394;DHT22;18853;45.426;9.206;2024-02-21T04:49:27;15.10;50.50
32394;DHT22;18853;45.426;9.206;2024-02-21T04:51:52;15.10;50.40
32394;DHT22;18853;45.426;9.206;2024-02-21T04:54:18;15.10;50.40
32394;DHT22;18853;45.426;9.206;2024-02-21T04:56:43;15.10;50.40
32394;DHT22;18853;45.426;9.206;2024-02-21T04:59:09;15.00;50.20
32394;DHT22;18853;45.426;9.206;2024-02-21T05:01:34;15.00;50.10
32394;DHT22;18853;45.426;9.206;2024-02-21T05:04:00;15.00;49.90
32394;DHT22;18853;45.426;9.206;2024-02-21T05:06:25;15.00;49.60
32394;DHT22;18853;45.426;9.206;2024-02-21T05:08:51;14.90;49.50
32394;DHT22;18853;45.426;9.206;2024-02-21T05:11:17;14.90;49.40
32394;DHT22;18853;45.426;9.206;2024-02-21T05:13:43;14.90;49.30
32394;DHT22;18853;45.426;9.206;2024-02-21T05:16:08;14.90;49.30
32394;DHT22;18853;45.426;9.206;2024-02-21T05:18:34;14.90;49.20
32394;DHT22;18853;45.426;9.206;2024-02-21T05:21:00;14.90;49.10
32394;DHT22;18853;45.426;9.206;2024-02-21T05:23:26;14.80;49.10
32394;DHT22;18853;45.426;9.206;2024-02-21T05:25:51;14.80;49.00
32394;DHT22;18853;45.426;9.206;2024-02-21T05:28:17;14.80;48.90
32394;DHT22;18853;45.426;9.206;2024-02-21T05:30:42;14.70;48.90
32394;DHT22;18853;45.426;9.206;2024-02-21T05:33:08;14.80;48.90
32394;DHT22;18853;45.426;9.206;2024-02-21T05:35:35;14.80;48.90
32394;DHT22;18853;45.426;9.206;2024-02-21T05:38:01;14.70;48.70
32394;DHT22;18853;45.426;9.206;2024-02-21T05:40:30;14.80;48.60
32394;DHT22;18853;45.426;9.206;2024-02-21T05:42:56;14.70;48.50
32394;DHT22;18853;45.426;9.206;2024-02-21T05:45:23;14.70;48.40
32394;DHT22;18853;45.426;9.206;2024-02-21T05:47:49;14.70;48.20
32394;DHT22;18853;45.426;9.206;2024-02-21T05:50:15;14.80;47.90
32394;DHT22;18853;45.426;9.206;2024-02-21T05:52:40;14.80;47.80
32394;DHT22;18853;45.426;9.206;2024-02-21T05:55:07;14.70;47.70
32394;DHT22;18853;45.426;9.206;2024-02-21T05:57:34;14.80;47.50
32394;DHT22;18853;45.426;9.206;2024-02-21T05:59:59;14.70;47.10
32394;DHT22;18853;45.426;9.206;2024-02-21T06:02:25;14.70;46.80
32394;DHT22;18853;45.426;9.206;2024-02-21T06:04:51;14.70;46.60
32394;DHT22;18853;45.426;9.206;2024-02-21T06:07:16;14.60;46.40
32394;DHT22;18853;45.426;9.206;2024-02-21T06:09:42;14.60;46.40
32394;DHT22;18853;45.426;9.206;2024-02-21T06:12:07;14.60;46.40
32394;DHT22;18853;45.426;9.206;2024-02-21T06:14:33;14.60;46.40
32394;DHT22;18853;45.426;9.206;2024-02-21T06:16:58;14.60;46.50
32394;DHT22;18853;45.426;9.206;2024-02-21T06:19:24;14.60;46.40
32394;DHT22;18853;45.426;9.206;2024-02-21T06:21:49;14.60;46.50
32394;DHT22;18853;45.426;9.206;2024-02-21T06:24:15;14.50;46.40
32394;DHT22;18853;45.426;9.206;2024-02-21T06:26:40;14.50;46.30
32394;DHT22;18853;45.426;9.206;2024-02-21T06:29:06;14.50;46.20
32394;DHT22;18853;45.426;9.206;2024-02-21T06:31:32;14.50;46.20
32394;DHT22;18853;45.426;9.206;2024-02-21T06:33:57;14.40;46.10
32394;DHT22;18853;45.426;9.206;2024-02-21T06:36:23;14.50;46.00
32394;DHT22;18853;45.426;9.206;2024-02-21T06:38:48;14.40;46.00
32394;DHT22;18853;45.426;9.206;2024-02-21T06:41:17;14.40;45.90
32394;DHT22;18853;45.426;9.206;2024-02-21T06:43:47;14.40;45.80
32394;DHT22;18853;45.426;9.206;2024-02-21T06:46:26;14.40;45.80
32394;DHT22;18853;45.426;9.206;2024-02-21T06:48:53;14.40;45.50
32394;DHT22;18853;45.426;9.206;2024-02-21T06:51:18;14.40;45.80
32394;DHT22;18853;45.426;9.206;2024-02-21T06:53:44;14.40;45.80
32394;DHT22;18853;45.426;9.206;2024-02-21T06:56:10;14.40;45.70
32394;DHT22;18853;45.426;9.206;2024-02-21T06:58:36;14.40;45.70
32394;DHT22;18853;45.426;9.206;2024-02-21T07:01:01;14.30;45.60
32394;DHT22;18853;45.426;9.206;2024-02-21T07:03:27;14.40;45.80
32394;DHT22;18853;45.426;9.206;2024-02-21T07:05:52;14.40;45.80
32394;DHT22;18853;45.426;9.206;2024-02-21T07:08:18;14.40;45.80
32394;DHT22;18853;45.426;9.206;2024-02-21T07:10:44;14.40;46.00
32394;DHT22;18853;45.426;9.206;2024-02-21T07:13:09;14.40;46.10
32394;DHT22;18853;45.426;9.206;2024-02-21T07:15:35;14.40;46.20
32394;DHT22;18853;45.426;9.206;2024-02-21T07:18:01;14.50;46.10
32394;DHT22;18853;45.426;9.206;2024-02-21T07:20:27;14.50;46.10
32394;DHT22;18853;45.426;9.206;2024-02-21T07:22:52;14.50;46.10
32394;DHT22;18853;45.426;9.206;2024-02-21T07:25:18;14.50;46.00
32394;DHT22;18853;45.426;9.206;2024-02-21T07:27:44;14.60;46.20
32394;DHT22;18853;45.426;9.206;2024-02-21T07:30:10;14.60;46.10
32394;DHT22;18853;45.426;9.206;2024-02-21T07:32:36;14.60;46.10
32394;DHT22;18853;45.426;9.206;2024-02-21T07:35:02;14.60;46.20
32394;DHT22;18853;45.426;9.206;2024-02-21T07:37:27;14.60;46.40
32394;DHT22;18853;45.426;9.206;2024-02-21T07:39:53;14.60;46.40
32394;DHT22;18853;45.426;9.206;2024-02-21T07:42:18;14.70;46.40
32394;DHT22;18853;45.426;9.206;2024-02-21T07:44:44;14.70;46.50
32394;DHT22;18853;45.426;9.206;2024-02-21T07:47:09;14.70;46.60
32394;DHT22;18853;45.426;9.206;2024-02-21T07:49:44;14.70;46.80
32394;DHT22;18853;45.426;9.206;2024-02-21T07:52:11;14.80;46.80
32394;DHT22;18853;45.426;9.206;2024-02-21T07:54:36;14.70;47.00
32394;DHT22;18853;45.426;9.206;2024-02-21T07:57:02;14.70;47.20
32394;DHT22;18853;45.426;9.206;2024-02-21T07:59:29;14.70;46.90
32394;DHT22;18853;45.426;9.206;2024-02-21T08:01:58;14.80;46.90
32394;DHT22;18853;45.426;9.206;2024-02-21T08:04:23;14.80;46.90
32394;DHT22;18853;45.426;9.206;2024-02-21T08:06:55;14.80;47.00
32394;DHT22;18853;45.426;9.206;2024-02-21T08:09:24;14.90;47.00
32394;DHT22;18853;45.426;9.206;2024-02-21T08:11:49;14.90;47.00
32394;DHT22;18853;45.426;9.206;2024-02-21T08:14:15;15.00;47.40
32394;DHT22;18853;45.426;9.206;2024-02-21T08:16:42;15.00;47.30
32394;DHT22;18853;45.426;9.206;2024-02-21T08:19:08;15.10;47.50
32394;DHT22;18853;45.426;9.206;2024-02-21T08:21:33;15.10;47.70
32394;DHT22;18853;45.426;9.206;2024-02-21T08:23:59;15.10;47.80
32394;DHT22;18853;45.426;9.206;2024-02-21T08:26:24;15.20;47.50
32394;DHT22;18853;45.426;9.206;2024-02-21T08:28:53;15.20;47.30
32394;DHT22;18853;45.426;9.206;2024-02-21T08:31:19;15.30;47.40
32394;DHT22;18853;45.426;9.206;2024-02-21T08:33:45;15.30;47.30
32394;DHT22;18853;45.426;9.206;2024-02-21T08:36:20;15.30;47.70
32394;DHT22;18853;45.426;9.206;2024-02-21T08:38:45;15.30;48.10
32394;DHT22;18853;45.426;9.206;2024-02-21T08:41:11;15.20;48.40
32394;DHT22;18853;45.426;9.206;2024-02-21T08:43:37;15.10;49.20
32394;DHT22;18853;45.426;9.206;2024-02-21T08:46:03;15.10;49.00
32394;DHT22;18853;45.426;9.206;2024-02-21T08:48:29;15.20;49.00
32394;DHT22;18853;45.426;9.206;2024-02-21T08:50:55;15.20;49.20
32394;DHT22;18853;45.426;9.206;2024-02-21T08:53:20;15.30;49.10
32394;DHT22;18853;45.426;9.206;2024-02-21T08:55:46;15.30;48.90
32394;DHT22;18853;45.426;9.206;2024-02-21T08:58:11;15.30;49.10
32394;DHT22;18853;45.426;9.206;2024-02-21T09:00:37;15.30;49.10
32394;DHT22;18853;45.426;9.206;2024-02-21T09:03:03;15.40;48.90
32394;DHT22;18853;45.426;9.206;2024-02-21T09:05:28;15.30;48.10
32394;DHT22;18853;45.426;9.206;2024-02-21T09:07:54;15.40;48.10
32394;DHT22;18853;45.426;9.206;2024-02-21T09:10:20;15.40;48.80
32394;DHT22;18853;45.426;9.206;2024-02-21T09:12:46;15.40;47.60
32394;DHT22;18853;45.426;9.206;2024-02-21T09:15:13;15.40;46.90
32394;DHT22;18853;45.426;9.206;2024-02-21T09:17:39;15.40;46.80
32394;DHT22;18853;45.426;9.206;2024-02-21T09:20:05;15.30;46.90
32394;DHT22;18853;45.426;9.206;2024-02-21T09:22:31;15.30;47.20
32394;DHT22;18853;45.426;9.206;2024-02-21T09:25:00;15.50;47.50
32394;DHT22;18853;45.426;9.206;2024-02-21T09:27:25;15.50;47.20
32394;DHT22;18853;45.426;9.206;2024-02-21T09:29:51;15.60;47.10
32394;DHT22;18853;45.426;9.206;2024-02-21T09:32:18;15.60;46.90
32394;DHT22;18853;45.426;9.206;2024-02-21T09:34:44;15.70;46.60
32394;DHT22;18853;45.426;9.206;2024-02-21T09:37:10;15.70;46.70
32394;DHT22;18853;45.426;9.206;2024-02-21T09:39:36;15.60;47.10
32394;DHT22;18853;45.426;9.206;2024-02-21T09:42:06;15.60;46.40
32394;DHT22;18853;45.426;9.206;2024-02-21T09:44:36;15.60;46.40
32394;DHT22;18853;45.426;9.206;2024-02-21T09:47:19;15.70;46.40
32394;DHT22;18853;45.426;9.206;2024-02-21T09:49:47;15.70;46.30
32394;DHT22;18853;45.426;9.206;2024-02-21T09:52:14;15.70;46.30
32394;DHT22;18853;45.426;9.206;2024-02-21T09:54:41;15.70;46.30
32394;DHT22;18853;45.426;9.206;2024-02-21T09:57:10;15.80;46.20
32394;DHT22;18853;45.426;9.206;2024-02-21T09:59:37;15.80;46.00
32394;DHT22;18853;45.426;9.206;2024-02-21T10:02:03;15.90;45.80
32394;DHT22;18853;45.426;9.206;2024-02-21T10:04:30;15.90;46.30
32394;DHT22;18853;45.426;9.206;2024-02-21T10:06:56;16.00;45.40
32394;DHT22;18853;45.426;9.206;2024-02-21T10:09:26;16.00;45.50
32394;DHT22;18853;45.426;9.206;2024-02-21T10:11:55;16.10;45.40
32394;DHT22;18853;45.426;9.206;2024-02-21T10:14:21;16.10;45.10
32394;DHT22;18853;45.426;9.206;2024-02-21T10:16:58;16.20;45.00
32394;DHT22;18853;45.426;9.206;2024-02-21T10:19:26;16.20;44.20
32394;DHT22;18853;45.426;9.206;2024-02-21T10:22:06;16.20;44.70
32394;DHT22;18853;45.426;9.206;2024-02-21T10:24:33;16.30;44.20
32394;DHT22;18853;45.426;9.206;2024-02-21T10:27:04;16.30;44.30
32394;DHT22;18853;45.426;9.206;2024-02-21T10:29:33;16.30;43.60
32394;DHT22;18853;45.426;9.206;2024-02-21T10:32:11;16.30;44.00
32394;DHT22;18853;45.426;9.206;2024-02-21T10:34:38;16.40;43.80
32394;DHT22;18853;45.426;9.206;2024-02-21T10:37:09;16.40;44.10
32394;DHT22;18853;45.426;9.206;2024-02-21T10:39:39;16.50;43.80
32394;DHT22;18853;45.426;9.206;2024-02-21T10:42:05;16.40;43.70
32394;DHT22;18853;45.426;9.206;2024-02-21T10:44:34;16.50;43.80
32394;DHT22;18853;45.426;9.206;2024-02-21T10:47:07;16.50;43.80
32394;DHT22;18853;45.426;9.206;2024-02-21T10:49:38;16.60;44.40
32394;DHT22;18853;45.426;9.206;2024-02-21T10:57:19;16.60;44.50
32394;DHT22;18853;45.426;9.206;2024-02-21T10:59:48;16.70;44.50
32394;DHT22;18853;45.426;9.206;2024-02-21T11:02:15;16.70;44.80
32394;DHT22;18853;45.426;9.206;2024-02-21T11:04:41;16.70;44.70
32394;DHT22;18853;45.426;9.206;2024-02-21T11:07:07;16.80;44.80
32394;DHT22;18853;45.426;9.206;2024-02-21T11:09:33;16.80;44.80
32394;DHT22;18853;45.426;9.206;2024-02-21T11:12:03;16.80;44.80
32394;DHT22;18853;45.426;9.206;2024-02-21T11:14:29;16.90;45.10
32394;DHT22;18853;45.426;9.206;2024-02-21T11:16:58;16.90;45.20
32394;DHT22;18853;45.426;9.206;2024-02-21T11:19:28;16.90;45.60
32394;DHT22;18853;45.426;9.206;2024-02-21T11:21:55;17.00;45.50
32394;DHT22;18853;45.426;9.206;2024-02-21T11:24:31;17.00;45.80
32394;DHT22;18853;45.426;9.206;2024-02-21T11:29:46;17.10;45.70
32394;DHT22;18853;45.426;9.206;2024-02-21T11:32:19;17.10;46.00
32394;DHT22;18853;45.426;9.206;2024-02-21T11:37:29;17.30;46.70
32394;DHT22;18853;45.426;9.206;2024-02-21T11:39:55;17.20;46.80
32394;DHT22;18853;45.426;9.206;2024-02-21T11:42:21;17.20;46.80
32394;DHT22;18853;45.426;9.206;2024-02-21T11:44:47;17.20;47.10
32394;DHT22;18853;45.426;9.206;2024-02-21T11:47:14;17.30;47.30
32394;DHT22;18853;45.426;9.206;2024-02-21T11:49:47;17.40;47.60
32394;DHT22;18853;45.426;9.206;2024-02-21T11:52:32;17.50;48.30
32394;DHT22;18853;45.426;9.206;2024-02-21T11:54:57;17.40;48.20
32394;DHT22;18853;45.426;9.206;2024-02-21T11:57:29;17.50;47.80
32394;DHT22;18853;45.426;9.206;2024-02-21T11:59:55;17.60;47.70
32394;DHT22;18853;45.426;9.206;2024-02-21T12:02:21;17.70;47.90
32394;DHT22;18853;45.426;9.206;2024-02-21T12:04:46;17.80;48.00
32394;DHT22;18853;45.426;9.206;2024-02-21T12:07:14;17.90;48.00
32394;DHT22;18853;45.426;9.206;2024-02-21T12:09:41;18.00;48.10
32394;DHT22;18853;45.426;9.206;2024-02-21T12:12:07;18.10;48.10
32394;DHT22;18853;45.426;9.206;2024-02-21T12:14:34;18.10;47.80
32394;DHT22;18853;45.426;9.206;2024-02-21T12:17:01;18.20;47.70
32394;DHT22;18853;45.426;9.206;2024-02-21T12:19:30;18.30;48.30
32394;DHT22;18853;45.426;9.206;2024-02-21T12:21:56;18.30;47.50
32394;DHT22;18853;45.426;9.206;2024-02-21T12:24:25;18.40;48.10
32394;DHT22;18853;45.426;9.206;2024-02-21T12:26:52;18.50;48.30
32394;DHT22;18853;45.426;9.206;2024-02-21T12:29:21;18.60;48.20
32394;DHT22;18853;45.426;9.206;2024-02-21T12:31:47;18.60;48.40
32394;DHT22;18853;45.426;9.206;2024-02-21T12:34:15;18.70;48.40
32394;DHT22;18853;45.426;9.206;2024-02-21T12:36:44;18.70;48.30
32394;DHT22;18853;45.426;9.206;2024-02-21T12:39:12;18.80;48.40
32394;DHT22;18853;45.426;9.206;2024-02-21T12:41:38;18.90;48.20
32394;DHT22;18853;45.426;9.206;2024-02-21T12:44:05;19.00;47.80
32394;DHT22;18853;45.426;9.206;2024-02-21T12:46:33;19.00;47.60
32394;DHT22;18853;45.426;9.206;2024-02-21T12:48:58;19.00;47.80
32394;DHT22;18853;45.426;9.206;2024-02-21T12:51:24;18.90;47.50
32394;DHT22;18853;45.426;9.206;2024-02-21T12:53:49;18.90;47.70
32394;DHT22;18853;45.426;9.206;2024-02-21T12:56:16;19.00;47.50
32394;DHT22;18853;45.426;9.206;2024-02-21T12:58:42;19.00;47.50
32394;DHT22;18853;45.426;9.206;2024-02-21T13:01:07;18.90;47.40
32394;DHT22;18853;45.426;9.206;2024-02-21T13:03:33;19.00;47.50
32394;DHT22;18853;45.426;9.206;2024-02-21T13:05:59;19.00;47.60
32394;DHT22;18853;45.426;9.206;2024-02-21T13:08:24;19.10;47.40
32394;DHT22;18853;45.426;9.206;2024-02-21T13:10:50;19.20;47.30
32394;DHT22;18853;45.426;9.206;2024-02-21T13:13:16;19.30;47.20
32394;DHT22;18853;45.426;9.206;2024-02-21T13:15:41;19.30;47.10
32394;DHT22;18853;45.426;9.206;2024-02-21T13:18:08;19.40;46.90
32394;DHT22;18853;45.426;9.206;2024-02-21T13:20:35;19.50;46.90
32394;DHT22;18853;45.426;9.206;2024-02-21T13:23:00;19.60;46.90
32394;DHT22;18853;45.426;9.206;2024-02-21T13:25:26;19.70;46.70
32394;DHT22;18853;45.426;9.206;2024-02-21T13:27:52;19.80;46.60
32394;DHT22;18853;45.426;9.206;2024-02-21T13:30:17;19.70;46.10
32394;DHT22;18853;45.426;9.206;2024-02-21T13:32:43;19.60;46.10
32394;DHT22;18853;45.426;9.206;2024-02-21T13:35:11;19.80;46.30
32394;DHT22;18853;45.426;9.206;2024-02-21T13:37:40;19.90;46.30
32394;DHT22;18853;45.426;9.206;2024-02-21T13:40:06;20.00;45.80
32394;DHT22;18853;45.426;9.206;2024-02-21T13:42:34;20.10;45.80
32394;DHT22;18853;45.426;9.206;2024-02-21T13:45:00;20.10;45.90
32394;DHT22;18853;45.426;9.206;2024-02-21T13:47:26;20.10;45.60
32394;DHT22;18853;45.426;9.206;2024-02-21T13:49:52;20.20;45.70
32394;DHT22;18853;45.426;9.206;2024-02-21T13:52:17;20.20;45.80
32394;DHT22;18853;45.426;9.206;2024-02-21T13:54:46;20.20;45.20
32394;DHT22;18853;45.426;9.206;2024-02-21T13:57:12;20.20;45.10
32394;DHT22;18853;45.426;9.206;2024-02-21T13:59:37;20.30;45.50
32394;DHT22;18853;45.426;9.206;2024-02-21T14:02:03;20.30;45.10
32394;DHT22;18853;45.426;9.206;2024-02-21T14:04:28;20.30;45.00
32394;DHT22;18853;45.426;9.206;2024-02-21T14:06:55;20.40;44.80
32394;DHT22;18853;45.426;9.206;2024-02-21T14:09:21;20.40;44.70
32394;DHT22;18853;45.426;9.206;2024-02-21T14:11:46;20.40;44.60
32394;DHT22;18853;45.426;9.206;2024-02-21T14:14:12;20.30;44.70
32394;DHT22;18853;45.426;9.206;2024-02-21T14:16:39;20.20;44.40
32394;DHT22;18853;45.426;9.206;2024-02-21T14:19:05;20.30;44.60
32394;DHT22;18853;45.426;9.206;2024-02-21T14:21:32;20.40;44.70
32394;DHT22;18853;45.426;9.206;2024-02-21T14:23:57;20.50;44.50
32394;DHT22;18853;45.426;9.206;2024-02-21T14:26:23;20.50;44.40
32394;DHT22;18853;45.426;9.206;2024-02-21T14:28:49;20.60;44.20
32394;DHT22;18853;45.426;9.206;2024-02-21T14:31:14;20.60;44.00
32394;DHT22;18853;45.426;9.206;2024-02-21T14:33:40;20.60;44.10
32394;DHT22;18853;45.426;9.206;2024-02-21T14:36:06;20.80;43.80
32394;DHT22;18853;45.426;9.206;2024-02-21T14:38:32;20.80;43.60
32394;DHT22;18853;45.426;9.206;2024-02-21T14:40:58;20.80;43.70
32394;DHT22;18853;45.426;9.206;2024-02-21T14:43:23;20.80;44.10
32394;DHT22;18853;45.426;9.206;2024-02-21T14:45:49;20.80;43.40
32394;DHT22;18853;45.426;9.206;2024-02-21T14:48:15;20.80;43.50
32394;DHT22;18853;45.426;9.206;2024-02-21T14:50:41;20.80;43.60
32394;DHT22;18853;45.426;9.206;2024-02-21T14:53:10;20.80;43.40
32394;DHT22;18853;45.426;9.206;2024-02-21T14:55:36;20.80;43.50
32394;DHT22;18853;45.426;9.206;2024-02-21T14:58:01;20.80;43.40
32394;DHT22;18853;45.426;9.206;2024-02-21T15:00:27;20.70;43.60
32394;DHT22;18853;45.426;9.206;2024-02-21T15:02:59;20.70;43.70
32394;DHT22;18853;45.426;9.206;2024-02-21T15:05:25;20.70;43.80
32394;DHT22;18853;45.426;9.206;2024-02-21T15:07:51;20.70;44.10
32394;DHT22;18853;45.426;9.206;2024-02-21T15:10:17;20.70;44.30
32394;DHT22;18853;45.426;9.206;2024-02-21T15:12:46;20.60;44.20
32394;DHT22;18853;45.426;9.206;2024-02-21T15:15:12;20.60;44.60
32394;DHT22;18853;45.426;9.206;2024-02-21T15:17:38;20.60;44.60
32394;DHT22;18853;45.426;9.206;2024-02-21T15:20:04;20.50;44.40
32394;DHT22;18853;45.426;9.206;2024-02-21T15:22:35;20.50;44.50
32394;DHT22;18853;45.426;9.206;2024-02-21T15:25:01;20.50;44.80
32394;DHT22;18853;45.426;9.206;2024-02-21T15:27:27;20.50;44.80
32394;DHT22;18853;45.426;9.206;2024-02-21T15:29:53;20.50;44.70
32394;DHT22;18853;45.426;9.206;2024-02-21T15:32:20;20.60;44.70
32394;DHT22;18853;45.426;9.206;2024-02-21T15:34:46;20.70;44.60
32394;DHT22;18853;45.426;9.206;2024-02-21T15:37:11;20.70;44.40
32394;DHT22;18853;45.426;9.206;2024-02-21T15:39:43;20.70;44.40
32394;DHT22;18853;45.426;9.206;2024-02-21T15:42:09;20.80;44.50